Strona główna
METAR-TAF:

METAR-TAF

Lotnisko :

Port lotniczy Banjarmasin

Banjarmasin, Indonezja

Szerokość geograficzna: 03-26-32S, Długość geograficzna: 114-45-45E, wysokość: 20 m

Aktualna obserwacja pogody

Raport powstał 42 minut temu, godzina 11:00 UTC
Wiatr 5 kt od wschód
Temperatura 29°C
Wilgotność 70%
Ciśnienie 1010 hPa
Widzialność 10 km lub więcej
Mało chmury na wysokości 1900 ft

METAR: WAOO 171100Z 10005KT 9999 FEW019 29/23 Q1010

czas: 18:42 (11:42 UTC)

Prognoza

Raport powstał 42 minut temu, godzina 11:00 UTC
Prognoza ważna od 17 godzina 12 UTC do 18 godzina 12 UTC
Wiatr 7 kt od południowo-południowy wschód
Widzialność 10 km lub więcej
Rozproszone chmury na wysokości 1800 ft
Stopniowe zmiany
od 17 godzina 21 UTC do 17 godzina 23 UTC
Wiatr 6 kt od wschód

TAF: WAOO 171100Z 1712/1812 15007KT 9999 SCT018 BECMG 1721/1723 09006KT

Obserwacja i prognoza pogody dla ponad 4000 lotnisk (raport METAR i TAF).

Dostępne stacje oznaczono żółtymi i czerwonymi punktami na mapie.

Najedź kursorem aby zobaczyć nazwę stacji.

Kliknij aby zobaczyć obserwacje i prognozy pogody.

Aby zmienić mapę: kliknij na zielony przycisk z czarnym krzyżykiem, aby powiększyć; na zielony przycisk z myślnikiem, aby pomniejszyć; na zielone strzałki, aby przejść do map sąsiednich.


METAR-TAF: